sensor_id;sensor_type;location;lat;lon;timestamp;temperature;humidity
55488;DHT22;41352;53.158;6.788;2022-11-20T00:02:14;-0.40;99.90
55488;DHT22;41352;53.158;6.788;2022-11-20T00:04:40;0.40;99.90
55488;DHT22;41352;53.158;6.788;2022-11-20T00:07:05;-0.50;99.90
55488;DHT22;41352;53.158;6.788;2022-11-20T00:09:31;-0.50;99.90
55488;DHT22;41352;53.158;6.788;2022-11-20T00:11:57;-0.50;99.90
55488;DHT22;41352;53.158;6.788;2022-11-20T00:14:22;-0.50;99.90
55488;DHT22;41352;53.158;6.788;2022-11-20T00:16:48;-0.50;99.90
55488;DHT22;41352;53.158;6.788;2022-11-20T00:19:14;-0.50;99.90
55488;DHT22;41352;53.158;6.788;2022-11-20T00:21:39;1.50;99.90
55488;DHT22;41352;53.158;6.788;2022-11-20T00:24:08;-0.40;99.90
55488;DHT22;41352;53.158;6.788;2022-11-20T00:26:34;-0.40;99.90
55488;DHT22;41352;53.158;6.788;2022-11-20T00:29:00;-0.40;99.90
55488;DHT22;41352;53.158;6.788;2022-11-20T00:31:27;-0.40;99.90
55488;DHT22;41352;53.158;6.788;2022-11-20T00:33:53;-0.30;99.90
55488;DHT22;41352;53.158;6.788;2022-11-20T00:36:24;0.60;99.90
55488;DHT22;41352;53.158;6.788;2022-11-20T00:38:54;-0.30;99.90
55488;DHT22;41352;53.158;6.788;2022-11-20T00:41:20;-0.30;99.90
55488;DHT22;41352;53.158;6.788;2022-11-20T00:43:48;-0.20;99.90
55488;DHT22;41352;53.158;6.788;2022-11-20T00:46:16;-0.20;99.90
55488;DHT22;41352;53.158;6.788;2022-11-20T00:48:42;-0.20;99.90
55488;DHT22;41352;53.158;6.788;2022-11-20T00:51:08;-0.20;99.90
55488;DHT22;41352;53.158;6.788;2022-11-20T00:53:34;-0.20;99.90
55488;DHT22;41352;53.158;6.788;2022-11-20T00:56:05;-0.20;99.90
55488;DHT22;41352;53.158;6.788;2022-11-20T00:58:33;-0.20;99.90
55488;DHT22;41352;53.158;6.788;2022-11-20T01:01:28;-0.10;99.90
55488;DHT22;41352;53.158;6.788;2022-11-20T01:03:58;-0.10;99.90
55488;DHT22;41352;53.158;6.788;2022-11-20T01:06:32;-0.10;99.90
55488;DHT22;41352;53.158;6.788;2022-11-20T01:09:00;0.00;99.90
55488;DHT22;41352;53.158;6.788;2022-11-20T01:11:32;0.00;99.90
55488;DHT22;41352;53.158;6.788;2022-11-20T01:13:59;0.00;99.90
55488;DHT22;41352;53.158;6.788;2022-11-20T01:16:27;0.00;99.90
55488;DHT22;41352;53.158;6.788;2022-11-20T01:18:57;0.00;99.90
55488;DHT22;41352;53.158;6.788;2022-11-20T01:21:25;0.00;99.90
55488;DHT22;41352;53.158;6.788;2022-11-20T01:23:52;0.00;99.90
55488;DHT22;41352;53.158;6.788;2022-11-20T01:26:20;0.00;99.90
55488;DHT22;41352;53.158;6.788;2022-11-20T01:28:48;0.00;99.90
55488;DHT22;41352;53.158;6.788;2022-11-20T01:33:42;0.00;99.90
55488;DHT22;41352;53.158;6.788;2022-11-20T01:36:09;0.00;99.90
55488;DHT22;41352;53.158;6.788;2022-11-20T01:38:34;0.00;99.90
55488;DHT22;41352;53.158;6.788;2022-11-20T01:41:00;0.60;99.90
55488;DHT22;41352;53.158;6.788;2022-11-20T01:43:26;0.00;99.90
55488;DHT22;41352;53.158;6.788;2022-11-20T01:51:30;0.10;99.90
55488;DHT22;41352;53.158;6.788;2022-11-20T01:54:00;0.10;99.90
55488;DHT22;41352;53.158;6.788;2022-11-20T01:56:28;0.10;99.90
55488;DHT22;41352;53.158;6.788;2022-11-20T01:58:58;0.10;99.90
55488;DHT22;41352;53.158;6.788;2022-11-20T02:01:26;0.10;99.90
55488;DHT22;41352;53.158;6.788;2022-11-20T02:03:52;0.10;99.90
55488;DHT22;41352;53.158;6.788;2022-11-20T02:09:09;0.10;99.90
55488;DHT22;41352;53.158;6.788;2022-11-20T02:11:34;0.00;99.90
55488;DHT22;41352;53.158;6.788;2022-11-20T02:14:00;0.00;99.90
55488;DHT22;41352;53.158;6.788;2022-11-20T02:16:31;0.10;99.90
55488;DHT22;41352;53.158;6.788;2022-11-20T02:19:00;0.10;99.90
55488;DHT22;41352;53.158;6.788;2022-11-20T02:24:18;0.10;99.90
55488;DHT22;41352;53.158;6.788;2022-11-20T02:27:07;0.00;99.90
55488;DHT22;41352;53.158;6.788;2022-11-20T02:29:38;-0.30;99.90
55488;DHT22;41352;53.158;6.788;2022-11-20T02:32:04;0.00;99.90
55488;DHT22;41352;53.158;6.788;2022-11-20T02:34:30;0.00;99.90
55488;DHT22;41352;53.158;6.788;2022-11-20T02:36:56;0.00;99.90
55488;DHT22;41352;53.158;6.788;2022-11-20T02:39:24;0.00;99.90
55488;DHT22;41352;53.158;6.788;2022-11-20T02:41:52;0.10;99.90
55488;DHT22;41352;53.158;6.788;2022-11-20T02:44:18;0.10;99.90
55488;DHT22;41352;53.158;6.788;2022-11-20T02:49:13;0.20;99.90
55488;DHT22;41352;53.158;6.788;2022-11-20T02:51:38;0.10;99.90
55488;DHT22;41352;53.158;6.788;2022-11-20T02:54:04;0.20;99.90
55488;DHT22;41352;53.158;6.788;2022-11-20T02:56:30;0.10;99.90
55488;DHT22;41352;53.158;6.788;2022-11-20T02:58:56;0.10;99.90
55488;DHT22;41352;53.158;6.788;2022-11-20T03:01:22;0.20;99.90
55488;DHT22;41352;53.158;6.788;2022-11-20T03:03:47;0.20;99.90
55488;DHT22;41352;53.158;6.788;2022-11-20T03:06:17;0.10;99.90
55488;DHT22;41352;53.158;6.788;2022-11-20T03:08:43;0.10;99.90
55488;DHT22;41352;53.158;6.788;2022-11-20T03:11:13;0.30;99.90
55488;DHT22;41352;53.158;6.788;2022-11-20T03:13:38;0.10;99.90
55488;DHT22;41352;53.158;6.788;2022-11-20T03:16:09;0.00;99.90
55488;DHT22;41352;53.158;6.788;2022-11-20T03:18:35;0.00;99.90
55488;DHT22;41352;53.158;6.788;2022-11-20T03:21:01;0.00;99.90
55488;DHT22;41352;53.158;6.788;2022-11-20T03:23:29;0.00;99.90
55488;DHT22;41352;53.158;6.788;2022-11-20T03:25:55;0.00;99.90
55488;DHT22;41352;53.158;6.788;2022-11-20T03:28:20;0.10;99.90
55488;DHT22;41352;53.158;6.788;2022-11-20T03:30:48;1.60;99.90
55488;DHT22;41352;53.158;6.788;2022-11-20T03:33:13;0.10;99.90
55488;DHT22;41352;53.158;6.788;2022-11-20T03:35:39;0.10;99.90
55488;DHT22;41352;53.158;6.788;2022-11-20T03:38:04;0.20;99.90
55488;DHT22;41352;53.158;6.788;2022-11-20T03:40:31;0.20;99.90
55488;DHT22;41352;53.158;6.788;2022-11-20T03:42:56;0.20;99.90
55488;DHT22;41352;53.158;6.788;2022-11-20T03:45:22;0.20;99.90
55488;DHT22;41352;53.158;6.788;2022-11-20T03:47:48;0.20;99.90
55488;DHT22;41352;53.158;6.788;2022-11-20T03:50:14;0.20;99.90
55488;DHT22;41352;53.158;6.788;2022-11-20T03:52:40;0.20;99.90
55488;DHT22;41352;53.158;6.788;2022-11-20T03:55:06;0.20;99.90
55488;DHT22;41352;53.158;6.788;2022-11-20T03:57:32;0.10;99.90
55488;DHT22;41352;53.158;6.788;2022-11-20T03:59:58;0.20;99.90
55488;DHT22;41352;53.158;6.788;2022-11-20T04:02:23;0.20;99.90
55488;DHT22;41352;53.158;6.788;2022-11-20T04:04:49;0.20;99.90
55488;DHT22;41352;53.158;6.788;2022-11-20T04:07:15;0.30;99.90
55488;DHT22;41352;53.158;6.788;2022-11-20T04:09:40;0.30;99.90
55488;DHT22;41352;53.158;6.788;2022-11-20T04:12:06;0.30;99.90
55488;DHT22;41352;53.158;6.788;2022-11-20T04:14:32;0.30;99.90
55488;DHT22;41352;53.158;6.788;2022-11-20T04:16:57;2.00;99.90
55488;DHT22;41352;53.158;6.788;2022-11-20T04:19:23;0.30;99.90
55488;DHT22;41352;53.158;6.788;2022-11-20T04:21:49;0.30;99.90
55488;DHT22;41352;53.158;6.788;2022-11-20T04:24:14;0.30;99.90
55488;DHT22;41352;53.158;6.788;2022-11-20T04:26:40;0.30;99.90
55488;DHT22;41352;53.158;6.788;2022-11-20T04:29:06;0.40;99.90
55488;DHT22;41352;53.158;6.788;2022-11-20T04:31:33;0.40;99.90
55488;DHT22;41352;53.158;6.788;2022-11-20T04:34:00;0.40;99.90
55488;DHT22;41352;53.158;6.788;2022-11-20T04:36:27;0.40;99.90
55488;DHT22;41352;53.158;6.788;2022-11-20T04:38:55;0.30;99.90
55488;DHT22;41352;53.158;6.788;2022-11-20T04:41:22;0.40;99.90
55488;DHT22;41352;53.158;6.788;2022-11-20T04:43:50;0.40;99.90
55488;DHT22;41352;53.158;6.788;2022-11-20T04:46:17;0.50;99.90
55488;DHT22;41352;53.158;6.788;2022-11-20T04:48:43;0.50;99.90
55488;DHT22;41352;53.158;6.788;2022-11-20T04:51:09;0.50;99.90
55488;DHT22;41352;53.158;6.788;2022-11-20T04:53:34;0.40;99.90
55488;DHT22;41352;53.158;6.788;2022-11-20T04:56:05;0.50;99.90
55488;DHT22;41352;53.158;6.788;2022-11-20T04:58:32;0.50;99.90
55488;DHT22;41352;53.158;6.788;2022-11-20T05:01:21;0.40;99.90
55488;DHT22;41352;53.158;6.788;2022-11-20T05:03:47;0.50;99.90
55488;DHT22;41352;53.158;6.788;2022-11-20T05:06:15;0.50;99.90
55488;DHT22;41352;53.158;6.788;2022-11-20T05:08:42;0.50;99.90
55488;DHT22;41352;53.158;6.788;2022-11-20T05:11:10;0.50;99.90
55488;DHT22;41352;53.158;6.788;2022-11-20T05:13:36;0.50;99.90
55488;DHT22;41352;53.158;6.788;2022-11-20T05:16:10;0.50;99.90
55488;DHT22;41352;53.158;6.788;2022-11-20T05:18:37;0.50;99.90
55488;DHT22;41352;53.158;6.788;2022-11-20T05:21:04;0.50;99.90
55488;DHT22;41352;53.158;6.788;2022-11-20T05:23:31;0.40;99.90
55488;DHT22;41352;53.158;6.788;2022-11-20T05:25:57;0.50;99.90
55488;DHT22;41352;53.158;6.788;2022-11-20T05:28:23;0.50;99.90
55488;DHT22;41352;53.158;6.788;2022-11-20T05:30:49;0.40;99.90
55488;DHT22;41352;53.158;6.788;2022-11-20T05:33:16;0.50;99.90
55488;DHT22;41352;53.158;6.788;2022-11-20T05:35:41;0.50;99.90
55488;DHT22;41352;53.158;6.788;2022-11-20T05:38:07;0.40;99.90
55488;DHT22;41352;53.158;6.788;2022-11-20T05:40:33;0.40;99.90
55488;DHT22;41352;53.158;6.788;2022-11-20T05:42:59;0.40;99.90
55488;DHT22;41352;53.158;6.788;2022-11-20T05:45:25;0.50;99.90
55488;DHT22;41352;53.158;6.788;2022-11-20T05:47:51;0.50;99.90
55488;DHT22;41352;53.158;6.788;2022-11-20T05:50:16;0.40;99.90
55488;DHT22;41352;53.158;6.788;2022-11-20T05:52:42;0.40;99.90
55488;DHT22;41352;53.158;6.788;2022-11-20T05:55:08;0.40;99.90
55488;DHT22;41352;53.158;6.788;2022-11-20T05:57:34;0.40;99.90
55488;DHT22;41352;53.158;6.788;2022-11-20T05:59:59;0.30;99.90
55488;DHT22;41352;53.158;6.788;2022-11-20T06:02:25;0.40;99.90
55488;DHT22;41352;53.158;6.788;2022-11-20T06:04:51;0.40;99.90
55488;DHT22;41352;53.158;6.788;2022-11-20T06:07:16;0.40;99.90
55488;DHT22;41352;53.158;6.788;2022-11-20T06:09:42;0.40;99.90
55488;DHT22;41352;53.158;6.788;2022-11-20T06:12:08;0.40;99.90
55488;DHT22;41352;53.158;6.788;2022-11-20T06:14:33;0.40;99.90
55488;DHT22;41352;53.158;6.788;2022-11-20T06:17:00;0.40;99.90
55488;DHT22;41352;53.158;6.788;2022-11-20T06:19:25;0.40;99.90
55488;DHT22;41352;53.158;6.788;2022-11-20T06:21:51;0.40;99.90
55488;DHT22;41352;53.158;6.788;2022-11-20T06:24:17;0.40;99.90
55488;DHT22;41352;53.158;6.788;2022-11-20T06:26:43;0.40;99.90
55488;DHT22;41352;53.158;6.788;2022-11-20T06:29:13;0.40;99.90
55488;DHT22;41352;53.158;6.788;2022-11-20T06:31:38;0.40;99.90
55488;DHT22;41352;53.158;6.788;2022-11-20T06:34:05;0.40;99.90
55488;DHT22;41352;53.158;6.788;2022-11-20T06:36:32;0.40;99.90
55488;DHT22;41352;53.158;6.788;2022-11-20T06:38:58;0.40;99.90
55488;DHT22;41352;53.158;6.788;2022-11-20T06:41:24;0.40;99.90
55488;DHT22;41352;53.158;6.788;2022-11-20T06:43:50;0.40;99.90
55488;DHT22;41352;53.158;6.788;2022-11-20T06:46:17;0.40;99.90
55488;DHT22;41352;53.158;6.788;2022-11-20T06:48:43;0.40;99.90
55488;DHT22;41352;53.158;6.788;2022-11-20T06:51:13;0.40;99.90
55488;DHT22;41352;53.158;6.788;2022-11-20T06:53:39;0.40;99.90
55488;DHT22;41352;53.158;6.788;2022-11-20T06:56:06;0.30;99.90
55488;DHT22;41352;53.158;6.788;2022-11-20T06:58:33;0.40;99.90
55488;DHT22;41352;53.158;6.788;2022-11-20T07:00:59;0.40;99.90
55488;DHT22;41352;53.158;6.788;2022-11-20T07:03:25;0.40;99.90
55488;DHT22;41352;53.158;6.788;2022-11-20T07:05:51;0.30;99.90
55488;DHT22;41352;53.158;6.788;2022-11-20T07:08:17;0.40;99.90
55488;DHT22;41352;53.158;6.788;2022-11-20T07:10:42;0.40;99.90
55488;DHT22;41352;53.158;6.788;2022-11-20T07:13:08;1.40;99.90
55488;DHT22;41352;53.158;6.788;2022-11-20T07:15:34;0.40;99.90
55488;DHT22;41352;53.158;6.788;2022-11-20T07:18:00;0.40;99.90
55488;DHT22;41352;53.158;6.788;2022-11-20T07:20:26;0.40;99.90
55488;DHT22;41352;53.158;6.788;2022-11-20T07:22:56;0.50;99.90
55488;DHT22;41352;53.158;6.788;2022-11-20T07:25:22;0.50;99.90
55488;DHT22;41352;53.158;6.788;2022-11-20T07:27:48;0.50;99.90
55488;DHT22;41352;53.158;6.788;2022-11-20T07:30:15;0.50;99.90
55488;DHT22;41352;53.158;6.788;2022-11-20T07:32:41;0.50;99.90
55488;DHT22;41352;53.158;6.788;2022-11-20T07:35:07;0.50;99.90
55488;DHT22;41352;53.158;6.788;2022-11-20T07:37:35;0.60;99.90
55488;DHT22;41352;53.158;6.788;2022-11-20T07:40:01;0.50;99.90
55488;DHT22;41352;53.158;6.788;2022-11-20T07:42:27;0.60;99.90
55488;DHT22;41352;53.158;6.788;2022-11-20T07:44:53;0.60;99.90
55488;DHT22;41352;53.158;6.788;2022-11-20T07:47:18;0.60;99.90
55488;DHT22;41352;53.158;6.788;2022-11-20T07:52:13;0.60;99.90
55488;DHT22;41352;53.158;6.788;2022-11-20T07:54:38;0.70;99.90
55488;DHT22;41352;53.158;6.788;2022-11-20T07:57:04;0.70;99.90
55488;DHT22;41352;53.158;6.788;2022-11-20T07:59:30;0.60;99.90
55488;DHT22;41352;53.158;6.788;2022-11-20T08:01:55;0.70;99.90
55488;DHT22;41352;53.158;6.788;2022-11-20T08:04:24;0.70;99.90
55488;DHT22;41352;53.158;6.788;2022-11-20T08:06:51;0.70;99.90
55488;DHT22;41352;53.158;6.788;2022-11-20T08:09:17;0.70;99.90
55488;DHT22;41352;53.158;6.788;2022-11-20T08:11:43;0.80;99.90
55488;DHT22;41352;53.158;6.788;2022-11-20T08:14:13;0.80;99.90
55488;DHT22;41352;53.158;6.788;2022-11-20T08:19:15;0.90;99.90
55488;DHT22;41352;53.158;6.788;2022-11-20T08:21:41;0.90;99.90
55488;DHT22;41352;53.158;6.788;2022-11-20T08:24:08;0.90;99.90
55488;DHT22;41352;53.158;6.788;2022-11-20T08:26:37;0.90;99.90
55488;DHT22;41352;53.158;6.788;2022-11-20T08:29:04;0.90;99.90
55488;DHT22;41352;53.158;6.788;2022-11-20T08:31:30;1.00;99.90
55488;DHT22;41352;53.158;6.788;2022-11-20T08:33:56;1.00;99.90
55488;DHT22;41352;53.158;6.788;2022-11-20T08:36:23;1.10;99.90
55488;DHT22;41352;53.158;6.788;2022-11-20T08:38:53;1.10;99.90
55488;DHT22;41352;53.158;6.788;2022-11-20T08:41:20;1.20;99.90
55488;DHT22;41352;53.158;6.788;2022-11-20T08:43:53;1.20;99.90
55488;DHT22;41352;53.158;6.788;2022-11-20T08:46:20;1.20;99.90
55488;DHT22;41352;53.158;6.788;2022-11-20T08:48:48;1.30;99.90
55488;DHT22;41352;53.158;6.788;2022-11-20T08:51:14;1.30;99.90
55488;DHT22;41352;53.158;6.788;2022-11-20T08:53:40;1.30;99.90
55488;DHT22;41352;53.158;6.788;2022-11-20T08:56:06;1.30;99.90
55488;DHT22;41352;53.158;6.788;2022-11-20T08:58:32;1.40;99.90
55488;DHT22;41352;53.158;6.788;2022-11-20T09:00:57;1.40;99.90
55488;DHT22;41352;53.158;6.788;2022-11-20T09:03:23;1.50;99.90
55488;DHT22;41352;53.158;6.788;2022-11-20T09:05:49;1.50;99.90
55488;DHT22;41352;53.158;6.788;2022-11-20T09:08:16;1.50;99.90
55488;DHT22;41352;53.158;6.788;2022-11-20T09:10:41;1.50;99.90
55488;DHT22;41352;53.158;6.788;2022-11-20T09:13:07;1.60;99.90
55488;DHT22;41352;53.158;6.788;2022-11-20T09:15:33;1.60;99.90
55488;DHT22;41352;53.158;6.788;2022-11-20T09:18:02;1.70;99.90
55488;DHT22;41352;53.158;6.788;2022-11-20T09:20:29;1.70;99.90
55488;DHT22;41352;53.158;6.788;2022-11-20T09:22:56;1.80;99.90
55488;DHT22;41352;53.158;6.788;2022-11-20T09:25:22;1.90;99.90
55488;DHT22;41352;53.158;6.788;2022-11-20T09:27:47;1.90;99.90
55488;DHT22;41352;53.158;6.788;2022-11-20T09:30:14;1.90;99.90
55488;DHT22;41352;53.158;6.788;2022-11-20T09:32:41;2.00;99.90
55488;DHT22;41352;53.158;6.788;2022-11-20T09:35:07;2.10;99.90
55488;DHT22;41352;53.158;6.788;2022-11-20T09:37:33;2.00;99.90
55488;DHT22;41352;53.158;6.788;2022-11-20T09:39:59;2.00;99.90
55488;DHT22;41352;53.158;6.788;2022-11-20T09:42:27;2.10;99.90
55488;DHT22;41352;53.158;6.788;2022-11-20T09:56:02;2.20;99.90
55488;DHT22;41352;53.158;6.788;2022-11-20T09:58:33;2.20;99.90
55488;DHT22;41352;53.158;6.788;2022-11-20T10:06:07;2.40;99.90
55488;DHT22;41352;53.158;6.788;2022-11-20T10:30:18;2.50;99.90
55488;DHT22;41352;53.158;6.788;2022-11-20T10:38:16;2.80;99.90
55488;DHT22;41352;53.158;6.788;2022-11-20T10:43:23;2.80;99.90
55488;DHT22;41352;53.158;6.788;2022-11-20T10:45:57;3.00;99.90
55488;DHT22;41352;53.158;6.788;2022-11-20T10:48:26;3.20;99.90
55488;DHT22;41352;53.158;6.788;2022-11-20T10:56:25;3.50;99.90
55488;DHT22;41352;53.158;6.788;2022-11-20T11:01:55;3.70;99.90
55488;DHT22;41352;53.158;6.788;2022-11-20T11:07:15;3.50;99.90
55488;DHT22;41352;53.158;6.788;2022-11-20T11:12:13;3.80;99.90
55488;DHT22;41352;53.158;6.788;2022-11-20T11:17:28;4.40;99.90
55488;DHT22;41352;53.158;6.788;2022-11-20T11:20:24;3.90;99.90
55488;DHT22;41352;53.158;6.788;2022-11-20T11:22:54;4.10;99.90
55488;DHT22;41352;53.158;6.788;2022-11-20T11:25:33;4.40;99.90
55488;DHT22;41352;53.158;6.788;2022-11-20T11:30:43;4.40;99.90
55488;DHT22;41352;53.158;6.788;2022-11-20T11:33:23;4.30;99.90
55488;DHT22;41352;53.158;6.788;2022-11-20T11:35:51;4.30;99.90
55488;DHT22;41352;53.158;6.788;2022-11-20T11:38:34;4.40;99.90
55488;DHT22;41352;53.158;6.788;2022-11-20T11:41:01;4.40;99.90
55488;DHT22;41352;53.158;6.788;2022-11-20T11:43:34;4.90;99.90
55488;DHT22;41352;53.158;6.788;2022-11-20T11:46:34;4.30;99.90
55488;DHT22;41352;53.158;6.788;2022-11-20T11:49:14;4.50;99.90
55488;DHT22;41352;53.158;6.788;2022-11-20T11:54:26;4.50;99.90
55488;DHT22;41352;53.158;6.788;2022-11-20T11:56:54;4.50;99.90
55488;DHT22;41352;53.158;6.788;2022-11-20T11:59:29;4.80;99.90
55488;DHT22;41352;53.158;6.788;2022-11-20T12:02:01;4.90;99.90
55488;DHT22;41352;53.158;6.788;2022-11-20T12:07:37;4.60;99.90
55488;DHT22;41352;53.158;6.788;2022-11-20T12:10:04;4.50;99.90
55488;DHT22;41352;53.158;6.788;2022-11-20T12:12:44;4.30;99.90
55488;DHT22;41352;53.158;6.788;2022-11-20T12:15:12;4.20;99.90
55488;DHT22;41352;53.158;6.788;2022-11-20T12:17:38;4.30;99.90
55488;DHT22;41352;53.158;6.788;2022-11-20T12:20:15;4.20;99.90
55488;DHT22;41352;53.158;6.788;2022-11-20T12:25:17;4.30;99.90
55488;DHT22;41352;53.158;6.788;2022-11-20T12:30:33;4.50;99.90
55488;DHT22;41352;53.158;6.788;2022-11-20T13:00:18;5.40;99.90
55488;DHT22;41352;53.158;6.788;2022-11-20T13:08:02;5.20;99.90
55488;DHT22;41352;53.158;6.788;2022-11-20T13:13:17;5.00;99.90
55488;DHT22;41352;53.158;6.788;2022-11-20T13:16:04;5.20;99.90
55488;DHT22;41352;53.158;6.788;2022-11-20T13:18:36;5.20;99.90
55488;DHT22;41352;53.158;6.788;2022-11-20T13:21:17;5.20;99.90
55488;DHT22;41352;53.158;6.788;2022-11-20T13:23:43;5.10;99.90
55488;DHT22;41352;53.158;6.788;2022-11-20T13:26:16;5.10;99.90
55488;DHT22;41352;53.158;6.788;2022-11-20T13:28:42;5.30;99.90
55488;DHT22;41352;53.158;6.788;2022-11-20T13:31:31;5.30;99.90
55488;DHT22;41352;53.158;6.788;2022-11-20T13:33:59;5.30;99.90
55488;DHT22;41352;53.158;6.788;2022-11-20T13:36:27;5.20;99.90
55488;DHT22;41352;53.158;6.788;2022-11-20T13:38:55;5.20;99.90
55488;DHT22;41352;53.158;6.788;2022-11-20T13:41:35;5.20;99.90
55488;DHT22;41352;53.158;6.788;2022-11-20T13:44:10;5.20;99.90
55488;DHT22;41352;53.158;6.788;2022-11-20T13:55:25;5.00;99.90
55488;DHT22;41352;53.158;6.788;2022-11-20T14:00:32;4.60;99.90
55488;DHT22;41352;53.158;6.788;2022-11-20T14:03:09;4.60;99.90
55488;DHT22;41352;53.158;6.788;2022-11-20T14:08:28;4.50;99.90
55488;DHT22;41352;53.158;6.788;2022-11-20T14:11:04;4.30;99.90
55488;DHT22;41352;53.158;6.788;2022-11-20T14:13:30;4.30;99.90
55488;DHT22;41352;53.158;6.788;2022-11-20T14:15:58;4.30;99.90
55488;DHT22;41352;53.158;6.788;2022-11-20T14:18:26;4.30;99.90
55488;DHT22;41352;53.158;6.788;2022-11-20T14:20:52;4.20;99.90
55488;DHT22;41352;53.158;6.788;2022-11-20T14:23:26;4.20;99.90
55488;DHT22;41352;53.158;6.788;2022-11-20T14:25:52;4.20;99.90
55488;DHT22;41352;53.158;6.788;2022-11-20T14:28:30;4.10;99.90
55488;DHT22;41352;53.158;6.788;2022-11-20T14:30:57;4.00;99.90
55488;DHT22;41352;53.158;6.788;2022-11-20T14:33:24;3.80;99.90
55488;DHT22;41352;53.158;6.788;2022-11-20T14:35:57;3.70;99.90
55488;DHT22;41352;53.158;6.788;2022-11-20T14:38:31;3.60;99.90
55488;DHT22;41352;53.158;6.788;2022-11-20T14:41:20;4.10;99.90
55488;DHT22;41352;53.158;6.788;2022-11-20T14:46:36;3.30;99.90
55488;DHT22;41352;53.158;6.788;2022-11-20T14:49:03;3.20;99.90
55488;DHT22;41352;53.158;6.788;2022-11-20T14:51:38;3.30;99.90
55488;DHT22;41352;53.158;6.788;2022-11-20T14:54:17;3.30;99.90
55488;DHT22;41352;53.158;6.788;2022-11-20T14:59:32;4.30;99.90
55488;DHT22;41352;53.158;6.788;2022-11-20T15:01:58;3.00;99.90
55488;DHT22;41352;53.158;6.788;2022-11-20T15:04:25;2.90;99.90
55488;DHT22;41352;53.158;6.788;2022-11-20T15:06:52;3.00;99.90
55488;DHT22;41352;53.158;6.788;2022-11-20T15:09:18;2.60;99.90
55488;DHT22;41352;53.158;6.788;2022-11-20T15:14:13;2.40;99.90
55488;DHT22;41352;53.158;6.788;2022-11-20T15:16:39;2.30;99.90
55488;DHT22;41352;53.158;6.788;2022-11-20T15:19:16;2.30;99.90
55488;DHT22;41352;53.158;6.788;2022-11-20T15:21:42;2.20;99.90
55488;DHT22;41352;53.158;6.788;2022-11-20T15:24:09;2.20;99.90
55488;DHT22;41352;53.158;6.788;2022-11-20T15:26:35;2.10;99.90
55488;DHT22;41352;53.158;6.788;2022-11-20T15:29:02;2.10;99.90
55488;DHT22;41352;53.158;6.788;2022-11-20T15:31:28;2.00;99.90
55488;DHT22;41352;53.158;6.788;2022-11-20T15:33:54;0.90;99.90
55488;DHT22;41352;53.158;6.788;2022-11-20T15:36:20;1.90;99.90
55488;DHT22;41352;53.158;6.788;2022-11-20T15:38:49;1.80;99.90
55488;DHT22;41352;53.158;6.788;2022-11-20T15:41:14;1.70;99.90
55488;DHT22;41352;53.158;6.788;2022-11-20T15:43:40;1.70;99.90
55488;DHT22;41352;53.158;6.788;2022-11-20T15:46:18;2.80;99.90
55488;DHT22;41352;53.158;6.788;2022-11-20T15:48:54;1.60;99.90
55488;DHT22;41352;53.158;6.788;2022-11-20T15:51:48;1.60;99.90
55488;DHT22;41352;53.158;6.788;2022-11-20T15:54:15;1.60;99.90
55488;DHT22;41352;53.158;6.788;2022-11-20T15:56:43;1.50;99.90
55488;DHT22;41352;53.158;6.788;2022-11-20T15:59:13;1.50;99.90
55488;DHT22;41352;53.158;6.788;2022-11-20T16:01:42;1.40;99.90
55488;DHT22;41352;53.158;6.788;2022-11-20T16:04:15;1.40;99.90
55488;DHT22;41352;53.158;6.788;2022-11-20T16:06:41;1.40;99.90
55488;DHT22;41352;53.158;6.788;2022-11-20T16:09:07;1.30;99.90
55488;DHT22;41352;53.158;6.788;2022-11-20T16:11:34;1.30;99.90
55488;DHT22;41352;53.158;6.788;2022-11-20T16:14:02;1.30;99.90
55488;DHT22;41352;53.158;6.788;2022-11-20T16:16:47;1.30;99.90
55488;DHT22;41352;53.158;6.788;2022-11-20T16:19:14;1.30;99.90
55488;DHT22;41352;53.158;6.788;2022-11-20T16:21:49;1.30;99.90
55488;DHT22;41352;53.158;6.788;2022-11-20T16:24:15;1.20;99.90
55488;DHT22;41352;53.158;6.788;2022-11-20T16:26:41;1.30;99.90
55488;DHT22;41352;53.158;6.788;2022-11-20T16:29:07;1.30;99.90
55488;DHT22;41352;53.158;6.788;2022-11-20T16:31:33;1.20;99.90
55488;DHT22;41352;53.158;6.788;2022-11-20T16:34:02;1.30;99.90
55488;DHT22;41352;53.158;6.788;2022-11-20T16:36:28;1.30;99.90
55488;DHT22;41352;53.158;6.788;2022-11-20T16:38:56;1.30;99.90
55488;DHT22;41352;53.158;6.788;2022-11-20T16:41:23;1.70;99.90
55488;DHT22;41352;53.158;6.788;2022-11-20T16:43:51;1.20;99.90
55488;DHT22;41352;53.158;6.788;2022-11-20T16:46:22;0.10;99.90
55488;DHT22;41352;53.158;6.788;2022-11-20T16:48:56;1.30;99.90
55488;DHT22;41352;53.158;6.788;2022-11-20T16:51:22;1.30;99.90
55488;DHT22;41352;53.158;6.788;2022-11-20T16:53:49;1.30;99.90
55488;DHT22;41352;53.158;6.788;2022-11-20T16:58:47;1.30;99.90
55488;DHT22;41352;53.158;6.788;2022-11-20T17:01:15;1.90;99.90
55488;DHT22;41352;53.158;6.788;2022-11-20T17:03:42;1.30;99.90
55488;DHT22;41352;53.158;6.788;2022-11-20T17:08:46;1.30;99.90
55488;DHT22;41352;53.158;6.788;2022-11-20T17:13:46;1.30;99.90
55488;DHT22;41352;53.158;6.788;2022-11-20T17:16:15;1.30;99.90
55488;DHT22;41352;53.158;6.788;2022-11-20T17:18:41;1.30;99.90
55488;DHT22;41352;53.158;6.788;2022-11-20T17:21:07;1.80;99.90
55488;DHT22;41352;53.158;6.788;2022-11-20T17:23:41;1.20;99.90
55488;DHT22;41352;53.158;6.788;2022-11-20T17:26:09;1.20;99.90
55488;DHT22;41352;53.158;6.788;2022-11-20T17:28:36;1.20;99.90
55488;DHT22;41352;53.158;6.788;2022-11-20T17:31:07;1.20;99.90
55488;DHT22;41352;53.158;6.788;2022-11-20T17:33:35;1.20;99.90
55488;DHT22;41352;53.158;6.788;2022-11-20T17:36:01;1.30;99.90
55488;DHT22;41352;53.158;6.788;2022-11-20T17:38:29;1.30;99.90
55488;DHT22;41352;53.158;6.788;2022-11-20T17:41:06;1.70;99.90
55488;DHT22;41352;53.158;6.788;2022-11-20T17:43:33;1.20;99.90
55488;DHT22;41352;53.158;6.788;2022-11-20T17:46:07;1.40;99.90
55488;DHT22;41352;53.158;6.788;2022-11-20T17:48:33;1.20;99.90
55488;DHT22;41352;53.158;6.788;2022-11-20T17:51:05;1.20;99.90
55488;DHT22;41352;53.158;6.788;2022-11-20T17:53:41;1.10;99.90
55488;DHT22;41352;53.158;6.788;2022-11-20T17:56:08;2.50;99.90
55488;DHT22;41352;53.158;6.788;2022-11-20T17:58:45;1.10;99.90
55488;DHT22;41352;53.158;6.788;2022-11-20T18:01:11;1.10;99.90
55488;DHT22;41352;53.158;6.788;2022-11-20T18:03:37;1.20;99.90
55488;DHT22;41352;53.158;6.788;2022-11-20T18:08:42;1.10;99.90
55488;DHT22;41352;53.158;6.788;2022-11-20T18:13:41;1.10;99.90
55488;DHT22;41352;53.158;6.788;2022-11-20T18:16:26;1.10;99.90
55488;DHT22;41352;53.158;6.788;2022-11-20T18:18:56;1.00;99.90
55488;DHT22;41352;53.158;6.788;2022-11-20T18:21:23;1.00;99.90
55488;DHT22;41352;53.158;6.788;2022-11-20T18:23:50;1.10;99.90
55488;DHT22;41352;53.158;6.788;2022-11-20T18:28:45;1.00;99.90
55488;DHT22;41352;53.158;6.788;2022-11-20T18:31:11;1.10;99.90
55488;DHT22;41352;53.158;6.788;2022-11-20T18:33:37;1.10;99.90
55488;DHT22;41352;53.158;6.788;2022-11-20T18:36:14;1.00;99.90
55488;DHT22;41352;53.158;6.788;2022-11-20T18:38:42;1.00;99.90
55488;DHT22;41352;53.158;6.788;2022-11-20T18:41:16;1.00;99.90
55488;DHT22;41352;53.158;6.788;2022-11-20T18:44:06;1.00;99.90